sensor_id;sensor_type;location;lat;lon;timestamp;P1;durP1;ratioP1;P2;durP2;ratioP2
7783;SDS011;19359;51.402;6.778;2022-08-19T00:01:18;4.72;;;4.43;;
7783;SDS011;19359;51.402;6.778;2022-08-19T00:03:46;5.05;;;4.65;;
7783;SDS011;19359;51.402;6.778;2022-08-19T00:06:13;4.43;;;4.22;;
7783;SDS011;19359;51.402;6.778;2022-08-19T00:08:40;4.85;;;4.65;;
7783;SDS011;19359;51.402;6.778;2022-08-19T00:11:08;5.20;;;4.90;;
7783;SDS011;19359;51.402;6.778;2022-08-19T00:13:35;4.88;;;4.53;;
7783;SDS011;19359;51.402;6.778;2022-08-19T00:16:03;5.18;;;4.78;;
7783;SDS011;19359;51.402;6.778;2022-08-19T00:18:31;4.63;;;4.32;;
7783;SDS011;19359;51.402;6.778;2022-08-19T00:20:58;5.18;;;4.80;;
7783;SDS011;19359;51.402;6.778;2022-08-19T00:23:25;4.93;;;4.60;;
7783;SDS011;19359;51.402;6.778;2022-08-19T00:25:52;4.43;;;4.22;;
7783;SDS011;19359;51.402;6.778;2022-08-19T00:28:20;6.10;;;4.80;;
7783;SDS011;19359;51.402;6.778;2022-08-19T00:30:47;5.68;;;5.22;;
7783;SDS011;19359;51.402;6.778;2022-08-19T00:33:14;4.50;;;4.30;;
7783;SDS011;19359;51.402;6.778;2022-08-19T00:35:41;4.88;;;4.57;;
7783;SDS011;19359;51.402;6.778;2022-08-19T00:38:08;4.65;;;4.40;;
7783;SDS011;19359;51.402;6.778;2022-08-19T00:40:35;5.50;;;5.00;;
7783;SDS011;19359;51.402;6.778;2022-08-19T00:43:05;5.25;;;4.80;;
7783;SDS011;19359;51.402;6.778;2022-08-19T00:45:36;4.93;;;4.60;;
7783;SDS011;19359;51.402;6.778;2022-08-19T00:48:03;4.55;;;4.28;;
7783;SDS011;19359;51.402;6.778;2022-08-19T00:50:30;4.68;;;4.47;;
7783;SDS011;19359;51.402;6.778;2022-08-19T00:52:57;5.80;;;5.25;;
7783;SDS011;19359;51.402;6.778;2022-08-19T00:55:26;4.95;;;4.55;;
7783;SDS011;19359;51.402;6.778;2022-08-19T00:57:55;5.22;;;4.93;;
7783;SDS011;19359;51.402;6.778;2022-08-19T01:00:26;6.28;;;5.20;;
7783;SDS011;19359;51.402;6.778;2022-08-19T01:02:55;5.47;;;4.97;;
7783;SDS011;19359;51.402;6.778;2022-08-19T01:05:23;5.70;;;5.22;;
7783;SDS011;19359;51.402;6.778;2022-08-19T01:07:52;5.47;;;4.95;;
7783;SDS011;19359;51.402;6.778;2022-08-19T01:10:21;6.35;;;4.88;;
7783;SDS011;19359;51.402;6.778;2022-08-19T01:12:51;5.00;;;4.75;;
7783;SDS011;19359;51.402;6.778;2022-08-19T01:15:20;5.78;;;5.28;;
7783;SDS011;19359;51.402;6.778;2022-08-19T01:17:49;5.10;;;4.75;;
7783;SDS011;19359;51.402;6.778;2022-08-19T01:20:19;5.70;;;5.20;;
7783;SDS011;19359;51.402;6.778;2022-08-19T01:22:49;5.78;;;5.40;;
7783;SDS011;19359;51.402;6.778;2022-08-19T01:25:19;5.57;;;5.05;;
7783;SDS011;19359;51.402;6.778;2022-08-19T01:27:48;4.68;;;4.30;;
7783;SDS011;19359;51.402;6.778;2022-08-19T01:30:16;5.55;;;5.15;;
7783;SDS011;19359;51.402;6.778;2022-08-19T01:32:45;5.07;;;4.88;;
7783;SDS011;19359;51.402;6.778;2022-08-19T01:35:12;5.97;;;5.07;;
7783;SDS011;19359;51.402;6.778;2022-08-19T01:37:43;5.30;;;4.85;;
7783;SDS011;19359;51.402;6.778;2022-08-19T01:40:13;5.03;;;4.80;;
7783;SDS011;19359;51.402;6.778;2022-08-19T01:42:40;5.50;;;5.20;;
7783;SDS011;19359;51.402;6.778;2022-08-19T01:45:07;5.57;;;5.22;;
7783;SDS011;19359;51.402;6.778;2022-08-19T01:47:34;5.05;;;4.75;;
7783;SDS011;19359;51.402;6.778;2022-08-19T01:50:03;5.50;;;5.30;;
7783;SDS011;19359;51.402;6.778;2022-08-19T01:52:31;5.70;;;5.30;;
7783;SDS011;19359;51.402;6.778;2022-08-19T01:55:00;11.60;;;5.22;;
7783;SDS011;19359;51.402;6.778;2022-08-19T01:57:28;5.85;;;5.55;;
7783;SDS011;19359;51.402;6.778;2022-08-19T01:59:55;5.47;;;5.07;;
7783;SDS011;19359;51.402;6.778;2022-08-19T02:02:22;5.65;;;5.28;;
7783;SDS011;19359;51.402;6.778;2022-08-19T02:04:49;5.50;;;5.20;;
7783;SDS011;19359;51.402;6.778;2022-08-19T02:07:18;5.38;;;5.05;;
7783;SDS011;19359;51.402;6.778;2022-08-19T02:09:45;5.13;;;4.63;;
7783;SDS011;19359;51.402;6.778;2022-08-19T02:12:13;5.72;;;5.20;;
7783;SDS011;19359;51.402;6.778;2022-08-19T02:14:42;6.07;;;5.50;;
7783;SDS011;19359;51.402;6.778;2022-08-19T02:17:09;5.07;;;4.68;;
7783;SDS011;19359;51.402;6.778;2022-08-19T02:19:36;5.80;;;5.45;;
7783;SDS011;19359;51.402;6.778;2022-08-19T02:22:03;5.32;;;5.13;;
7783;SDS011;19359;51.402;6.778;2022-08-19T02:24:30;5.90;;;5.53;;
7783;SDS011;19359;51.402;6.778;2022-08-19T02:26:57;5.82;;;5.25;;
7783;SDS011;19359;51.402;6.778;2022-08-19T02:29:24;5.93;;;5.38;;
7783;SDS011;19359;51.402;6.778;2022-08-19T02:31:52;5.68;;;5.35;;
7783;SDS011;19359;51.402;6.778;2022-08-19T02:34:19;5.60;;;5.22;;
7783;SDS011;19359;51.402;6.778;2022-08-19T02:36:46;5.60;;;4.72;;
7783;SDS011;19359;51.402;6.778;2022-08-19T02:39:12;6.10;;;5.70;;
7783;SDS011;19359;51.402;6.778;2022-08-19T02:41:38;6.15;;;5.85;;
7783;SDS011;19359;51.402;6.778;2022-08-19T02:44:05;5.70;;;5.30;;
7783;SDS011;19359;51.402;6.778;2022-08-19T02:46:32;6.18;;;5.68;;
7783;SDS011;19359;51.402;6.778;2022-08-19T02:49:03;6.25;;;5.68;;
7783;SDS011;19359;51.402;6.778;2022-08-19T02:51:32;7.07;;;5.50;;
7783;SDS011;19359;51.402;6.778;2022-08-19T02:54:01;6.20;;;5.72;;
7783;SDS011;19359;51.402;6.778;2022-08-19T02:56:29;5.80;;;5.45;;
7783;SDS011;19359;51.402;6.778;2022-08-19T02:58:56;5.70;;;5.25;;
7783;SDS011;19359;51.402;6.778;2022-08-19T03:01:25;6.95;;;6.40;;
7783;SDS011;19359;51.402;6.778;2022-08-19T03:03:53;5.63;;;5.30;;
7783;SDS011;19359;51.402;6.778;2022-08-19T03:06:22;6.35;;;5.80;;
7783;SDS011;19359;51.402;6.778;2022-08-19T03:08:49;6.50;;;5.95;;
7783;SDS011;19359;51.402;6.778;2022-08-19T03:11:18;5.75;;;5.30;;
7783;SDS011;19359;51.402;6.778;2022-08-19T03:13:46;6.75;;;5.45;;
7783;SDS011;19359;51.402;6.778;2022-08-19T03:16:15;5.97;;;5.68;;
7783;SDS011;19359;51.402;6.778;2022-08-19T03:18:42;5.75;;;5.25;;
7783;SDS011;19359;51.402;6.778;2022-08-19T03:21:09;6.32;;;5.88;;
7783;SDS011;19359;51.402;6.778;2022-08-19T03:23:43;6.72;;;6.22;;
7783;SDS011;19359;51.402;6.778;2022-08-19T03:26:10;5.10;;;4.90;;
7783;SDS011;19359;51.402;6.778;2022-08-19T03:28:36;7.82;;;5.38;;
7783;SDS011;19359;51.402;6.778;2022-08-19T03:31:04;6.72;;;6.03;;
7783;SDS011;19359;51.402;6.778;2022-08-19T03:33:34;5.88;;;5.50;;
7783;SDS011;19359;51.402;6.778;2022-08-19T03:36:03;6.20;;;5.70;;
7783;SDS011;19359;51.402;6.778;2022-08-19T03:38:32;5.95;;;5.65;;
7783;SDS011;19359;51.402;6.778;2022-08-19T03:41:03;7.10;;;6.55;;
7783;SDS011;19359;51.402;6.778;2022-08-19T03:43:33;5.97;;;5.60;;
7783;SDS011;19359;51.402;6.778;2022-08-19T03:46:01;6.85;;;6.00;;
7783;SDS011;19359;51.402;6.778;2022-08-19T03:48:30;6.15;;;5.65;;
7783;SDS011;19359;51.402;6.778;2022-08-19T03:50:58;6.20;;;5.80;;
7783;SDS011;19359;51.402;6.778;2022-08-19T03:53:26;6.15;;;5.75;;
7783;SDS011;19359;51.402;6.778;2022-08-19T03:55:54;6.25;;;5.70;;
7783;SDS011;19359;51.402;6.778;2022-08-19T03:58:22;6.10;;;5.70;;
7783;SDS011;19359;51.402;6.778;2022-08-19T04:00:49;6.25;;;5.75;;
7783;SDS011;19359;51.402;6.778;2022-08-19T04:03:16;6.72;;;6.18;;
7783;SDS011;19359;51.402;6.778;2022-08-19T04:05:44;7.15;;;6.43;;
7783;SDS011;19359;51.402;6.778;2022-08-19T04:08:11;6.32;;;5.72;;
7783;SDS011;19359;51.402;6.778;2022-08-19T04:10:46;6.28;;;5.82;;
7783;SDS011;19359;51.402;6.778;2022-08-19T04:13:13;7.10;;;6.40;;
7783;SDS011;19359;51.402;6.778;2022-08-19T04:15:43;6.22;;;5.75;;
7783;SDS011;19359;51.402;6.778;2022-08-19T04:18:11;6.30;;;5.80;;
7783;SDS011;19359;51.402;6.778;2022-08-19T04:20:39;6.95;;;6.40;;
7783;SDS011;19359;51.402;6.778;2022-08-19T04:23:09;6.63;;;6.13;;
7783;SDS011;19359;51.402;6.778;2022-08-19T04:25:37;6.22;;;5.82;;
7783;SDS011;19359;51.402;6.778;2022-08-19T04:28:05;6.63;;;6.03;;
7783;SDS011;19359;51.402;6.778;2022-08-19T04:30:37;6.47;;;5.97;;
7783;SDS011;19359;51.402;6.778;2022-08-19T04:33:06;5.90;;;5.50;;
7783;SDS011;19359;51.402;6.778;2022-08-19T04:35:34;6.15;;;5.75;;
7783;SDS011;19359;51.402;6.778;2022-08-19T04:38:03;6.45;;;5.95;;
7783;SDS011;19359;51.402;6.778;2022-08-19T04:40:30;6.05;;;5.63;;
7783;SDS011;19359;51.402;6.778;2022-08-19T04:43:15;5.93;;;5.53;;
7783;SDS011;19359;51.402;6.778;2022-08-19T04:45:42;6.75;;;6.28;;
7783;SDS011;19359;51.402;6.778;2022-08-19T04:48:10;6.90;;;6.35;;
7783;SDS011;19359;51.402;6.778;2022-08-19T04:50:39;6.85;;;6.15;;
7783;SDS011;19359;51.402;6.778;2022-08-19T04:53:07;6.53;;;5.88;;
7783;SDS011;19359;51.402;6.778;2022-08-19T04:55:34;6.30;;;5.80;;
7783;SDS011;19359;51.402;6.778;2022-08-19T04:58:04;6.15;;;5.65;;
7783;SDS011;19359;51.402;6.778;2022-08-19T05:00:31;8.05;;;6.63;;
7783;SDS011;19359;51.402;6.778;2022-08-19T05:02:58;10.70;;;6.97;;
7783;SDS011;19359;51.402;6.778;2022-08-19T05:05:27;7.50;;;6.82;;
7783;SDS011;19359;51.402;6.778;2022-08-19T05:07:53;8.40;;;7.22;;
7783;SDS011;19359;51.402;6.778;2022-08-19T05:10:20;7.47;;;6.93;;
7783;SDS011;19359;51.402;6.778;2022-08-19T05:12:47;8.05;;;7.45;;
7783;SDS011;19359;51.402;6.778;2022-08-19T05:15:14;7.72;;;7.22;;
7783;SDS011;19359;51.402;6.778;2022-08-19T05:17:41;9.93;;;9.02;;
7783;SDS011;19359;51.402;6.778;2022-08-19T05:20:29;11.18;;;8.35;;
7783;SDS011;19359;51.402;6.778;2022-08-19T05:23:13;9.45;;;8.70;;
7783;SDS011;19359;51.402;6.778;2022-08-19T05:25:42;18.15;;;10.43;;
7783;SDS011;19359;51.402;6.778;2022-08-19T05:28:09;10.82;;;9.85;;
7783;SDS011;19359;51.402;6.778;2022-08-19T05:30:36;11.88;;;10.80;;
7783;SDS011;19359;51.402;6.778;2022-08-19T05:33:05;13.32;;;11.13;;
7783;SDS011;19359;51.402;6.778;2022-08-19T05:35:34;15.85;;;11.55;;
7783;SDS011;19359;51.402;6.778;2022-08-19T05:38:02;13.38;;;11.98;;
7783;SDS011;19359;51.402;6.778;2022-08-19T05:40:29;15.00;;;12.98;;
7783;SDS011;19359;51.402;6.778;2022-08-19T05:42:56;16.10;;;13.90;;
7783;SDS011;19359;51.402;6.778;2022-08-19T05:45:23;18.77;;;14.05;;
7783;SDS011;19359;51.402;6.778;2022-08-19T05:47:50;16.60;;;14.90;;
7783;SDS011;19359;51.402;6.778;2022-08-19T05:50:17;17.48;;;15.63;;
7783;SDS011;19359;51.402;6.778;2022-08-19T05:52:45;20.00;;;16.38;;
7783;SDS011;19359;51.402;6.778;2022-08-19T05:55:12;29.95;;;18.35;;
7783;SDS011;19359;51.402;6.778;2022-08-19T05:57:39;21.77;;;18.73;;
7783;SDS011;19359;51.402;6.778;2022-08-19T06:00:06;20.88;;;17.70;;
7783;SDS011;19359;51.402;6.778;2022-08-19T06:02:35;23.20;;;18.20;;
7783;SDS011;19359;51.402;6.778;2022-08-19T06:05:02;23.23;;;17.98;;
7783;SDS011;19359;51.402;6.778;2022-08-19T06:07:31;24.05;;;19.30;;
7783;SDS011;19359;51.402;6.778;2022-08-19T06:09:59;25.20;;;19.98;;
7783;SDS011;19359;51.402;6.778;2022-08-19T06:12:26;26.30;;;22.33;;
7783;SDS011;19359;51.402;6.778;2022-08-19T06:14:59;35.20;;;23.92;;
7783;SDS011;19359;51.402;6.778;2022-08-19T06:17:26;34.42;;;24.63;;
7783;SDS011;19359;51.402;6.778;2022-08-19T06:19:52;28.20;;;22.85;;
7783;SDS011;19359;51.402;6.778;2022-08-19T06:22:19;34.75;;;22.50;;
7783;SDS011;19359;51.402;6.778;2022-08-19T06:24:46;35.28;;;24.25;;
7783;SDS011;19359;51.402;6.778;2022-08-19T06:27:18;36.60;;;24.30;;
7783;SDS011;19359;51.402;6.778;2022-08-19T06:29:46;35.65;;;26.85;;
7783;SDS011;19359;51.402;6.778;2022-08-19T06:32:14;38.03;;;26.42;;
7783;SDS011;19359;51.402;6.778;2022-08-19T06:34:43;50.05;;;29.52;;
7783;SDS011;19359;51.402;6.778;2022-08-19T06:37:10;39.42;;;31.05;;
7783;SDS011;19359;51.402;6.778;2022-08-19T06:39:39;43.25;;;30.63;;
7783;SDS011;19359;51.402;6.778;2022-08-19T06:42:07;37.33;;;28.67;;
7783;SDS011;19359;51.402;6.778;2022-08-19T06:44:38;36.92;;;29.83;;
7783;SDS011;19359;51.402;6.778;2022-08-19T06:47:07;41.67;;;32.17;;
7783;SDS011;19359;51.402;6.778;2022-08-19T06:49:35;45.63;;;32.72;;
7783;SDS011;19359;51.402;6.778;2022-08-19T06:52:03;42.83;;;32.60;;
7783;SDS011;19359;51.402;6.778;2022-08-19T06:54:31;36.88;;;31.23;;
7783;SDS011;19359;51.402;6.778;2022-08-19T06:56:58;54.67;;;38.22;;
7783;SDS011;19359;51.402;6.778;2022-08-19T06:59:27;50.45;;;38.60;;
7783;SDS011;19359;51.402;6.778;2022-08-19T07:01:59;53.20;;;39.03;;
7783;SDS011;19359;51.402;6.778;2022-08-19T07:04:30;45.90;;;35.50;;
7783;SDS011;19359;51.402;6.778;2022-08-19T07:06:59;47.20;;;36.00;;
7783;SDS011;19359;51.402;6.778;2022-08-19T07:09:27;52.55;;;36.67;;
7783;SDS011;19359;51.402;6.778;2022-08-19T07:11:54;48.30;;;34.78;;
7783;SDS011;19359;51.402;6.778;2022-08-19T07:14:22;41.45;;;31.55;;
7783;SDS011;19359;51.402;6.778;2022-08-19T07:16:51;38.20;;;32.65;;
7783;SDS011;19359;51.402;6.778;2022-08-19T07:19:22;46.15;;;35.83;;
7783;SDS011;19359;51.402;6.778;2022-08-19T07:21:52;38.75;;;32.92;;
7783;SDS011;19359;51.402;6.778;2022-08-19T07:24:20;43.33;;;30.08;;
7783;SDS011;19359;51.402;6.778;2022-08-19T07:26:49;38.55;;;30.52;;
7783;SDS011;19359;51.402;6.778;2022-08-19T07:29:18;42.50;;;30.85;;
7783;SDS011;19359;51.402;6.778;2022-08-19T07:31:45;39.55;;;30.58;;
7783;SDS011;19359;51.402;6.778;2022-08-19T07:34:12;40.65;;;28.92;;
7783;SDS011;19359;51.402;6.778;2022-08-19T07:36:41;37.22;;;29.65;;
7783;SDS011;19359;51.402;6.778;2022-08-19T07:39:10;35.65;;;28.15;;
7783;SDS011;19359;51.402;6.778;2022-08-19T07:41:38;34.38;;;25.95;;
7783;SDS011;19359;51.402;6.778;2022-08-19T07:44:05;31.42;;;24.58;;
7783;SDS011;19359;51.402;6.778;2022-08-19T07:46:34;29.92;;;23.73;;
7783;SDS011;19359;51.402;6.778;2022-08-19T07:49:03;39.08;;;27.25;;
7783;SDS011;19359;51.402;6.778;2022-08-19T07:51:31;31.83;;;24.25;;
7783;SDS011;19359;51.402;6.778;2022-08-19T07:54:00;27.45;;;22.80;;
7783;SDS011;19359;51.402;6.778;2022-08-19T07:56:27;31.70;;;23.27;;
7783;SDS011;19359;51.402;6.778;2022-08-19T07:58:53;30.38;;;23.83;;
7783;SDS011;19359;51.402;6.778;2022-08-19T08:01:22;27.63;;;22.10;;
7783;SDS011;19359;51.402;6.778;2022-08-19T08:03:51;25.05;;;19.65;;
7783;SDS011;19359;51.402;6.778;2022-08-19T08:06:36;25.90;;;17.65;;
7783;SDS011;19359;51.402;6.778;2022-08-19T08:09:23;24.70;;;19.23;;
7783;SDS011;19359;51.402;6.778;2022-08-19T08:11:53;23.20;;;18.85;;
7783;SDS011;19359;51.402;6.778;2022-08-19T08:14:23;26.33;;;18.40;;
7783;SDS011;19359;51.402;6.778;2022-08-19T08:16:51;20.65;;;16.40;;
7783;SDS011;19359;51.402;6.778;2022-08-19T08:19:19;23.45;;;17.33;;
7783;SDS011;19359;51.402;6.778;2022-08-19T08:21:47;20.83;;;17.10;;
7783;SDS011;19359;51.402;6.778;2022-08-19T08:24:14;22.83;;;16.85;;
7783;SDS011;19359;51.402;6.778;2022-08-19T08:26:43;18.23;;;16.33;;
7783;SDS011;19359;51.402;6.778;2022-08-19T08:29:11;17.48;;;15.35;;
7783;SDS011;19359;51.402;6.778;2022-08-19T08:31:38;19.70;;;15.63;;
7783;SDS011;19359;51.402;6.778;2022-08-19T08:34:06;17.25;;;14.68;;
7783;SDS011;19359;51.402;6.778;2022-08-19T08:36:35;21.52;;;16.33;;
7783;SDS011;19359;51.402;6.778;2022-08-19T08:39:05;22.67;;;16.17;;
7783;SDS011;19359;51.402;6.778;2022-08-19T08:41:35;19.50;;;15.15;;
7783;SDS011;19359;51.402;6.778;2022-08-19T08:44:20;17.85;;;13.48;;
7783;SDS011;19359;51.402;6.778;2022-08-19T08:46:49;16.27;;;12.95;;
7783;SDS011;19359;51.402;6.778;2022-08-19T08:49:23;19.85;;;12.38;;
7783;SDS011;19359;51.402;6.778;2022-08-19T08:51:57;21.65;;;15.73;;
7783;SDS011;19359;51.402;6.778;2022-08-19T08:54:29;20.23;;;16.02;;
7783;SDS011;19359;51.402;6.778;2022-08-19T08:56:59;18.45;;;15.75;;
7783;SDS011;19359;51.402;6.778;2022-08-19T08:59:28;19.98;;;17.50;;
7783;SDS011;19359;51.402;6.778;2022-08-19T09:01:57;18.80;;;16.80;;
7783;SDS011;19359;51.402;6.778;2022-08-19T09:04:24;22.42;;;17.02;;
7783;SDS011;19359;51.402;6.778;2022-08-19T09:06:51;24.55;;;17.50;;
7783;SDS011;19359;51.402;6.778;2022-08-19T09:09:23;19.27;;;16.98;;
7783;SDS011;19359;51.402;6.778;2022-08-19T09:11:59;21.45;;;17.58;;
7783;SDS011;19359;51.402;6.778;2022-08-19T09:14:36;24.70;;;20.83;;
7783;SDS011;19359;51.402;6.778;2022-08-19T09:17:10;22.70;;;16.80;;
7783;SDS011;19359;51.402;6.778;2022-08-19T09:19:46;21.10;;;15.60;;
7783;SDS011;19359;51.402;6.778;2022-08-19T09:22:16;18.98;;;16.02;;
7783;SDS011;19359;51.402;6.778;2022-08-19T09:24:46;19.45;;;15.25;;
7783;SDS011;19359;51.402;6.778;2022-08-19T09:27:13;15.77;;;13.93;;
7783;SDS011;19359;51.402;6.778;2022-08-19T09:29:42;22.27;;;16.63;;
7783;SDS011;19359;51.402;6.778;2022-08-19T09:32:08;22.73;;;17.98;;
7783;SDS011;19359;51.402;6.778;2022-08-19T09:34:35;22.75;;;17.67;;
7783;SDS011;19359;51.402;6.778;2022-08-19T09:37:02;32.97;;;19.27;;
7783;SDS011;19359;51.402;6.778;2022-08-19T09:39:30;26.30;;;18.33;;
7783;SDS011;19359;51.402;6.778;2022-08-19T09:41:56;24.67;;;19.42;;
7783;SDS011;19359;51.402;6.778;2022-08-19T09:44:23;21.67;;;17.05;;
7783;SDS011;19359;51.402;6.778;2022-08-19T09:46:51;22.38;;;18.17;;
7783;SDS011;19359;51.402;6.778;2022-08-19T09:49:18;22.35;;;17.75;;
7783;SDS011;19359;51.402;6.778;2022-08-19T09:51:48;25.83;;;18.90;;
7783;SDS011;19359;51.402;6.778;2022-08-19T09:54:16;24.75;;;19.52;;
7783;SDS011;19359;51.402;6.778;2022-08-19T09:56:44;24.77;;;20.35;;
7783;SDS011;19359;51.402;6.778;2022-08-19T09:59:10;32.83;;;22.17;;
7783;SDS011;19359;51.402;6.778;2022-08-19T10:01:38;24.30;;;20.48;;
7783;SDS011;19359;51.402;6.778;2022-08-19T10:04:06;30.00;;;22.77;;
7783;SDS011;19359;51.402;6.778;2022-08-19T10:06:34;24.52;;;19.88;;
7783;SDS011;19359;51.402;6.778;2022-08-19T10:09:03;28.08;;;22.02;;
7783;SDS011;19359;51.402;6.778;2022-08-19T10:11:31;25.25;;;20.38;;
7783;SDS011;19359;51.402;6.778;2022-08-19T10:13:59;27.15;;;18.77;;
7783;SDS011;19359;51.402;6.778;2022-08-19T10:16:26;25.60;;;18.35;;
7783;SDS011;19359;51.402;6.778;2022-08-19T10:18:53;19.00;;;16.10;;
7783;SDS011;19359;51.402;6.778;2022-08-19T10:21:23;24.75;;;18.63;;
7783;SDS011;19359;51.402;6.778;2022-08-19T10:23:52;24.15;;;16.70;;
7783;SDS011;19359;51.402;6.778;2022-08-19T10:26:23;21.23;;;17.20;;
7783;SDS011;19359;51.402;6.778;2022-08-19T10:28:53;22.00;;;15.68;;
7783;SDS011;19359;51.402;6.778;2022-08-19T10:31:20;21.15;;;16.73;;
7783;SDS011;19359;51.402;6.778;2022-08-19T10:33:49;18.20;;;16.23;;
7783;SDS011;19359;51.402;6.778;2022-08-19T10:36:24;18.90;;;14.82;;
7783;SDS011;19359;51.402;6.778;2022-08-19T10:38:53;17.52;;;15.68;;
7783;SDS011;19359;51.402;6.778;2022-08-19T10:41:24;17.17;;;14.32;;
7783;SDS011;19359;51.402;6.778;2022-08-19T10:43:52;31.08;;;15.88;;
7783;SDS011;19359;51.402;6.778;2022-08-19T10:46:21;15.48;;;13.35;;
7783;SDS011;19359;51.402;6.778;2022-08-19T10:48:49;14.25;;;12.50;;
7783;SDS011;19359;51.402;6.778;2022-08-19T10:51:16;16.15;;;14.32;;
7783;SDS011;19359;51.402;6.778;2022-08-19T10:54:02;21.92;;;13.27;;
7783;SDS011;19359;51.402;6.778;2022-08-19T10:56:29;14.68;;;13.15;;
7783;SDS011;19359;51.402;6.778;2022-08-19T10:59:14;13.20;;;11.82;;
7783;SDS011;19359;51.402;6.778;2022-08-19T11:01:42;11.63;;;10.35;;
7783;SDS011;19359;51.402;6.778;2022-08-19T11:04:10;12.27;;;10.55;;
7783;SDS011;19359;51.402;6.778;2022-08-19T11:06:38;12.55;;;10.73;;
7783;SDS011;19359;51.402;6.778;2022-08-19T11:09:08;13.02;;;10.73;;
7783;SDS011;19359;51.402;6.778;2022-08-19T11:11:36;10.50;;;9.57;;
7783;SDS011;19359;51.402;6.778;2022-08-19T11:14:05;13.98;;;10.23;;
7783;SDS011;19359;51.402;6.778;2022-08-19T11:16:32;14.25;;;10.55;;
7783;SDS011;19359;51.402;6.778;2022-08-19T11:18:59;10.38;;;7.65;;
7783;SDS011;19359;51.402;6.778;2022-08-19T11:21:27;6.72;;;6.07;;
7783;SDS011;19359;51.402;6.778;2022-08-19T11:23:58;11.93;;;8.57;;
7783;SDS011;19359;51.402;6.778;2022-08-19T11:26:27;9.43;;;8.48;;
7783;SDS011;19359;51.402;6.778;2022-08-19T11:28:54;12.68;;;9.25;;
7783;SDS011;19359;51.402;6.778;2022-08-19T11:31:23;10.40;;;9.30;;
7783;SDS011;19359;51.402;6.778;2022-08-19T11:33:51;8.80;;;8.00;;
7783;SDS011;19359;51.402;6.778;2022-08-19T11:36:19;10.38;;;8.18;;
7783;SDS011;19359;51.402;6.778;2022-08-19T11:38:47;7.07;;;6.55;;
7783;SDS011;19359;51.402;6.778;2022-08-19T11:41:15;7.07;;;6.43;;
7783;SDS011;19359;51.402;6.778;2022-08-19T11:43:44;7.72;;;7.00;;
7783;SDS011;19359;51.402;6.778;2022-08-19T11:46:12;5.15;;;4.75;;
7783;SDS011;19359;51.402;6.778;2022-08-19T11:48:40;8.50;;;6.07;;
7783;SDS011;19359;51.402;6.778;2022-08-19T11:51:08;10.05;;;6.65;;
7783;SDS011;19359;51.402;6.778;2022-08-19T11:53:36;6.25;;;5.78;;
7783;SDS011;19359;51.402;6.778;2022-08-19T11:56:05;4.80;;;4.47;;
7783;SDS011;19359;51.402;6.778;2022-08-19T11:58:34;6.50;;;5.68;;
7783;SDS011;19359;51.402;6.778;2022-08-19T12:01:05;6.95;;;6.30;;
7783;SDS011;19359;51.402;6.778;2022-08-19T12:03:33;8.43;;;6.22;;
7783;SDS011;19359;51.402;6.778;2022-08-19T12:06:02;6.93;;;5.68;;
7783;SDS011;19359;51.402;6.778;2022-08-19T12:08:30;5.68;;;5.28;;
7783;SDS011;19359;51.402;6.778;2022-08-19T12:10:57;5.53;;;4.78;;
7783;SDS011;19359;51.402;6.778;2022-08-19T12:13:26;4.80;;;4.43;;
7783;SDS011;19359;51.402;6.778;2022-08-19T12:15:53;6.75;;;6.10;;
7783;SDS011;19359;51.402;6.778;2022-08-19T12:18:21;4.50;;;4.20;;
7783;SDS011;19359;51.402;6.778;2022-08-19T12:20:50;5.78;;;5.28;;
7783;SDS011;19359;51.402;6.778;2022-08-19T12:23:19;6.20;;;4.75;;
7783;SDS011;19359;51.402;6.778;2022-08-19T12:25:47;4.68;;;4.07;;
7783;SDS011;19359;51.402;6.778;2022-08-19T12:28:16;5.03;;;4.57;;
7783;SDS011;19359;51.402;6.778;2022-08-19T12:30:44;4.75;;;4.35;;
7783;SDS011;19359;51.402;6.778;2022-08-19T12:33:10;6.50;;;3.33;;
7783;SDS011;19359;51.402;6.778;2022-08-19T12:35:40;3.40;;;2.70;;
7783;SDS011;19359;51.402;6.778;2022-08-19T12:38:07;3.15;;;3.05;;
7783;SDS011;19359;51.402;6.778;2022-08-19T12:40:34;5.88;;;4.30;;
7783;SDS011;19359;51.402;6.778;2022-08-19T12:43:01;3.90;;;3.70;;
7783;SDS011;19359;51.402;6.778;2022-08-19T12:45:28;4.50;;;4.10;;
7783;SDS011;19359;51.402;6.778;2022-08-19T12:47:54;5.18;;;3.50;;
7783;SDS011;19359;51.402;6.778;2022-08-19T12:50:21;3.40;;;3.10;;
7783;SDS011;19359;51.402;6.778;2022-08-19T12:52:49;3.95;;;3.50;;
7783;SDS011;19359;51.402;6.778;2022-08-19T12:55:17;4.13;;;3.80;;
7783;SDS011;19359;51.402;6.778;2022-08-19T12:57:44;3.53;;;3.33;;
7783;SDS011;19359;51.402;6.778;2022-08-19T13:00:13;3.55;;;3.30;;
7783;SDS011;19359;51.402;6.778;2022-08-19T13:02:42;3.60;;;3.40;;
7783;SDS011;19359;51.402;6.778;2022-08-19T13:05:11;4.60;;;4.30;;
7783;SDS011;19359;51.402;6.778;2022-08-19T13:07:41;6.25;;;3.20;;
7783;SDS011;19359;51.402;6.778;2022-08-19T13:10:11;2.90;;;2.78;;
7783;SDS011;19359;51.402;6.778;2022-08-19T13:12:41;6.53;;;3.45;;
7783;SDS011;19359;51.402;6.778;2022-08-19T13:15:08;3.08;;;2.88;;
7783;SDS011;19359;51.402;6.778;2022-08-19T13:17:36;3.15;;;2.95;;
7783;SDS011;19359;51.402;6.778;2022-08-19T13:20:03;3.55;;;2.88;;
7783;SDS011;19359;51.402;6.778;2022-08-19T13:22:32;3.53;;;2.97;;
7783;SDS011;19359;51.402;6.778;2022-08-19T13:25:00;4.18;;;3.80;;
7783;SDS011;19359;51.402;6.778;2022-08-19T13:27:29;4.75;;;4.35;;
7783;SDS011;19359;51.402;6.778;2022-08-19T13:29:57;3.85;;;3.55;;
7783;SDS011;19359;51.402;6.778;2022-08-19T13:32:41;3.30;;;3.10;;
7783;SDS011;19359;51.402;6.778;2022-08-19T13:35:25;3.63;;;3.42;;
7783;SDS011;19359;51.402;6.778;2022-08-19T13:37:52;3.88;;;3.58;;
7783;SDS011;19359;51.402;6.778;2022-08-19T13:40:19;3.17;;;3.00;;
7783;SDS011;19359;51.402;6.778;2022-08-19T13:42:51;3.55;;;2.72;;
7783;SDS011;19359;51.402;6.778;2022-08-19T13:45:19;2.90;;;2.75;;
7783;SDS011;19359;51.402;6.778;2022-08-19T13:47:48;4.05;;;2.65;;
7783;SDS011;19359;51.402;6.778;2022-08-19T13:50:17;3.38;;;2.92;;
7783;SDS011;19359;51.402;6.778;2022-08-19T13:52:45;2.90;;;2.67;;
7783;SDS011;19359;51.402;6.778;2022-08-19T13:55:12;4.95;;;3.10;;
7783;SDS011;19359;51.402;6.778;2022-08-19T13:57:40;5.05;;;2.65;;
7783;SDS011;19359;51.402;6.778;2022-08-19T14:00:09;10.40;;;3.42;;
7783;SDS011;19359;51.402;6.778;2022-08-19T14:02:40;3.30;;;3.03;;
7783;SDS011;19359;51.402;6.778;2022-08-19T14:05:09;4.32;;;3.20;;
7783;SDS011;19359;51.402;6.778;2022-08-19T14:07:38;5.10;;;3.05;;
7783;SDS011;19359;51.402;6.778;2022-08-19T14:10:06;2.70;;;2.50;;
7783;SDS011;19359;51.402;6.778;2022-08-19T14:12:35;5.30;;;2.92;;
7783;SDS011;19359;51.402;6.778;2022-08-19T14:15:02;3.25;;;3.13;;
7783;SDS011;19359;51.402;6.778;2022-08-19T14:17:31;3.40;;;2.78;;
7783;SDS011;19359;51.402;6.778;2022-08-19T14:20:00;3.15;;;2.95;;
7783;SDS011;19359;51.402;6.778;2022-08-19T14:22:32;7.82;;;3.58;;
7783;SDS011;19359;51.402;6.778;2022-08-19T14:24:59;14.65;;;3.40;;
7783;SDS011;19359;51.402;6.778;2022-08-19T14:27:26;7.30;;;2.90;;
7783;SDS011;19359;51.402;6.778;2022-08-19T14:29:53;3.20;;;2.97;;
7783;SDS011;19359;51.402;6.778;2022-08-19T14:32:20;5.10;;;2.97;;
7783;SDS011;19359;51.402;6.778;2022-08-19T14:34:48;2.95;;;2.70;;
7783;SDS011;19359;51.402;6.778;2022-08-19T14:37:15;3.30;;;3.08;;
7783;SDS011;19359;51.402;6.778;2022-08-19T14:39:41;9.90;;;3.22;;
7783;SDS011;19359;51.402;6.778;2022-08-19T14:42:09;2.33;;;2.22;;
7783;SDS011;19359;51.402;6.778;2022-08-19T14:44:37;3.28;;;3.03;;
7783;SDS011;19359;51.402;6.778;2022-08-19T14:47:04;3.95;;;2.88;;
7783;SDS011;19359;51.402;6.778;2022-08-19T14:49:31;4.93;;;3.25;;
7783;SDS011;19359;51.402;6.778;2022-08-19T14:52:00;3.30;;;2.92;;
7783;SDS011;19359;51.402;6.778;2022-08-19T14:54:27;7.88;;;3.05;;
7783;SDS011;19359;51.402;6.778;2022-08-19T14:56:56;2.88;;;2.67;;
7783;SDS011;19359;51.402;6.778;2022-08-19T14:59:23;3.28;;;2.53;;